createdAt,value
2019-04-21T00:03:18.138Z,75.86
2019-04-21T00:06:48.204Z,75.89
2019-04-21T00:10:06.312Z,76.42
2019-04-21T00:13:12.372Z,75.90
2019-04-21T00:16:17.183Z,74.53
2019-04-21T00:19:35.701Z,74.89
2019-04-21T00:23:09.470Z,76.32
2019-04-21T00:26:25.373Z,75.69
2019-04-21T00:29:51.792Z,75.86
2019-04-21T00:32:50.266Z,75.56
2019-04-21T00:35:59.839Z,76.10
2019-04-21T00:39:36.143Z,75.72
2019-04-21T00:42:43.209Z,77.04
2019-04-21T00:45:51.802Z,76.84
2019-04-21T00:49:10.540Z,78.59
2019-04-21T00:56:04.539Z,78.51
2019-04-21T00:59:16.388Z,77.55
2019-04-21T01:02:29.715Z,77.63
2019-04-21T01:05:49.821Z,76.49
2019-04-21T01:08:59.439Z,78.29
2019-04-21T01:12:19.356Z,78.46
2019-04-21T01:15:38.535Z,78.38
2019-04-21T01:18:51.929Z,77.89
2019-04-21T01:21:42.656Z,77.76
2019-04-21T01:25:04.546Z,76.90
2019-04-21T01:28:32.816Z,76.52
2019-04-21T01:31:41.630Z,77.67
2019-04-21T01:35:02.665Z,79.46
2019-04-21T01:38:27.315Z,78.38
2019-04-21T01:41:41.301Z,78.89
2019-04-21T01:44:56.407Z,79.62
2019-04-21T01:48:03.583Z,79.83
2019-04-21T01:51:18.733Z,79.91
2019-04-21T01:55:00.390Z,80.19
2019-04-21T01:58:11.532Z,79.57
2019-04-21T02:01:34.608Z,80.07
2019-04-21T02:04:55.793Z,80.15
2019-04-21T02:08:01.072Z,80.85
2019-04-21T02:11:23.114Z,80.44
2019-04-21T02:14:41.043Z,80.10
2019-04-21T02:17:53.736Z,80.30
2019-04-21T02:20:52.872Z,80.29
2019-04-21T02:24:31.265Z,80.85
2019-04-21T02:27:36.465Z,80.57
2019-04-21T02:31:18.673Z,80.95
2019-04-21T02:34:13.402Z,80.43
2019-04-21T02:37:44.858Z,80.81
2019-04-21T02:40:51.506Z,80.69
2019-04-21T02:47:27.384Z,81.02
2019-04-21T02:54:24.624Z,81.81
2019-04-21T02:57:09.606Z,81.23
2019-04-21T03:03:55.007Z,82.55
2019-04-21T03:07:24.346Z,82.05
2019-04-21T03:13:57.241Z,81.71
2019-04-21T03:20:44.461Z,82.17
2019-04-21T03:24:15.296Z,82.83
2019-04-21T03:27:17.198Z,82.93
2019-04-21T03:30:42.245Z,82.93
2019-04-21T03:37:16.912Z,82.87
2019-04-21T03:43:29.970Z,82.17
2019-04-21T03:50:04.623Z,82.42
2019-04-21T04:00:31.847Z,82.32
2019-04-21T04:06:56.569Z,82.89
2019-04-21T04:10:08.405Z,83.47
2019-04-21T04:13:26.549Z,83.81
2019-04-21T04:16:42.580Z,83.92
2019-04-21T04:23:09.804Z,83.51
2019-04-21T04:26:31.617Z,83.31
2019-04-21T04:29:39.666Z,83.94
2019-04-21T04:32:46.839Z,83.51
2019-04-21T04:39:48.687Z,84.33
2019-04-21T04:43:11.930Z,83.84
2019-04-21T04:46:17.734Z,84.33
2019-04-21T04:49:43.498Z,84.63
2019-04-21T04:59:32.556Z,83.77
2019-04-21T05:02:40.251Z,83.56
2019-04-21T05:09:39.370Z,83.37
2019-04-21T05:23:25.701Z,82.74
2019-04-21T05:26:32.970Z,82.92
2019-04-21T05:29:58.651Z,82.75
2019-04-21T05:33:36.102Z,83.09
2019-04-21T05:37:15.467Z,83.26
2019-04-21T05:40:28.737Z,83.06
2019-04-21T05:43:54.528Z,82.90
2019-04-21T05:47:14.184Z,83.54
2019-04-21T05:50:19.102Z,82.83
2019-04-21T05:53:39.399Z,82.92
2019-04-21T05:56:51.028Z,82.37
2019-04-21T06:00:09.914Z,82.19
2019-04-21T06:03:23.134Z,82.40
2019-04-21T06:06:39.654Z,81.99
2019-04-21T06:10:07.233Z,81.79
2019-04-21T06:13:19.906Z,81.35
2019-04-21T06:16:28.710Z,81.25
2019-04-21T06:23:00.232Z,81.87
2019-04-21T06:29:29.831Z,81.15
2019-04-21T06:36:39.019Z,80.08
2019-04-21T06:39:54.194Z,79.78
2019-04-21T06:43:08.166Z,79.44
2019-04-21T06:46:17.137Z,78.85
2019-04-21T06:49:28.093Z,78.48
2019-04-21T06:52:51.945Z,77.44
2019-04-21T06:55:59.983Z,76.58
2019-04-21T06:59:09.711Z,75.47
2019-04-21T07:05:48.756Z,72.23
2019-04-21T07:09:13.975Z,67.29
2019-04-21T07:12:05.766Z,65.85
2019-04-21T07:15:30.551Z,62.54
2019-04-21T07:18:58.630Z,59.48
2019-04-21T07:22:03.096Z,58.20
2019-04-21T07:25:28.169Z,57.76
2019-04-21T07:28:31.753Z,56.07
2019-04-21T07:31:55.539Z,55.01
2019-04-21T07:35:03.895Z,55.34
2019-04-21T07:38:16.546Z,52.71
2019-04-21T07:41:24.982Z,52.09
2019-04-21T07:44:39.466Z,52.76
2019-04-21T07:48:08.335Z,52.48
2019-04-21T07:51:51.538Z,51.55
2019-04-21T07:58:20.982Z,50.83
2019-04-21T08:01:36.967Z,51.21
2019-04-21T08:08:01.573Z,50.97
2019-04-21T08:11:20.813Z,49.61
2019-04-21T08:15:03.204Z,49.01
2019-04-21T08:17:54.713Z,47.84
2019-04-21T08:21:05.886Z,46.30
2019-04-21T08:24:27.499Z,45.58
2019-04-21T08:27:47.747Z,43.90
2019-04-21T08:30:54.228Z,44.78
2019-04-21T08:34:14.130Z,43.89
2019-04-21T08:37:24.151Z,43.79
2019-04-21T08:40:40.870Z,43.59
2019-04-21T08:43:58.979Z,43.09
2019-04-21T08:47:12.583Z,42.75
2019-04-21T08:50:28.026Z,42.04
2019-04-21T08:53:57.102Z,40.55
2019-04-21T08:57:24.247Z,40.30
2019-04-21T09:00:51.168Z,39.70
2019-04-21T09:04:18.694Z,39.60
2019-04-21T09:07:25.859Z,38.10
2019-04-21T09:10:35.471Z,38.01
2019-04-21T09:13:48.934Z,37.16
2019-04-21T09:17:01.682Z,36.27
2019-04-21T09:20:42.757Z,36.72
2019-04-21T09:23:32.912Z,36.20
2019-04-21T09:26:54.217Z,37.24
2019-04-21T09:29:54.053Z,35.71
2019-04-21T09:33:05.549Z,34.72
2019-04-21T09:36:22.054Z,35.25
2019-04-21T09:39:41.836Z,34.77
2019-04-21T09:42:56.820Z,34.36
2019-04-21T09:46:06.170Z,32.70
2019-04-21T09:49:23.970Z,32.19
2019-04-21T09:52:41.733Z,31.96
2019-04-21T09:55:56.712Z,33.67
2019-04-21T09:59:14.843Z,29.01
2019-04-21T10:02:36.568Z,30.08
2019-04-21T10:05:38.063Z,29.05
2019-04-21T10:09:00.947Z,29.36
2019-04-21T10:12:07.587Z,28.00
2019-04-21T10:15:23.640Z,28.79
2019-04-21T10:18:36.518Z,29.99
2019-04-21T10:21:52.028Z,27.75
2019-04-21T10:25:06.736Z,26.15
2019-04-21T10:28:21.155Z,25.57
2019-04-21T10:31:36.800Z,26.42
2019-04-21T10:34:50.301Z,23.52
2019-04-21T10:38:17.027Z,24.68
2019-04-21T10:41:19.358Z,24.19
2019-04-21T10:44:32.780Z,22.75
2019-04-21T10:47:47.207Z,23.91
2019-04-21T10:51:01.100Z,23.47
2019-04-21T10:54:15.841Z,25.37
2019-04-21T10:57:30.575Z,24.98
2019-04-21T11:00:46.113Z,23.20
2019-04-21T11:04:19.958Z,25.04
2019-04-21T11:08:03.703Z,24.08
2019-04-21T11:11:03.839Z,21.55
2019-04-21T11:14:17.893Z,22.17
2019-04-21T11:17:32.331Z,22.17
2019-04-21T11:20:46.914Z,22.21
2019-04-21T11:24:01.736Z,20.85
2019-04-21T11:27:16.986Z,20.31
2019-04-21T11:30:31.724Z,22.01
2019-04-21T11:33:45.485Z,21.51
2019-04-21T11:36:59.155Z,22.22
2019-04-21T11:40:16.726Z,22.51
2019-04-21T11:43:28.904Z,21.07
2019-04-21T11:46:42.699Z,20.92
2019-04-21T11:49:57.066Z,20.24
2019-04-21T11:53:10.946Z,21.01
2019-04-21T11:56:25.167Z,20.12
2019-04-21T11:59:39.651Z,19.16
2019-04-21T12:02:53.440Z,17.51
2019-04-21T12:06:06.895Z,17.16
2019-04-21T12:09:21.003Z,16.58
2019-04-21T12:16:30.829Z,18.42
2019-04-21T12:19:44.774Z,18.15
2019-04-21T12:23:00.398Z,17.74
2019-04-21T12:26:14.110Z,17.78
2019-04-21T12:29:29.040Z,18.57
2019-04-21T12:32:56.263Z,17.70
2019-04-21T12:36:09.843Z,19.78
2019-04-21T12:39:24.980Z,17.27
2019-04-21T12:42:40.391Z,17.88
2019-04-21T12:45:54.138Z,17.21
2019-04-21T12:49:08.090Z,17.44
2019-04-21T12:52:21.887Z,18.07
2019-04-21T12:55:40.318Z,16.89
2019-04-21T12:58:51.369Z,16.46
2019-04-21T13:02:05.081Z,15.65
2019-04-21T13:05:19.956Z,17.15
2019-04-21T13:08:45.656Z,16.29
2019-04-21T13:11:49.257Z,16.84
2019-04-21T13:15:04.275Z,17.06
2019-04-21T13:18:18.456Z,15.99
2019-04-21T13:21:32.101Z,16.75
2019-04-21T13:24:45.584Z,16.90
2019-04-21T13:27:59.226Z,16.41
2019-04-21T13:31:14.054Z,15.98
2019-04-21T13:34:28.344Z,14.36
2019-04-21T13:37:43.365Z,14.35
2019-04-21T13:41:36.693Z,14.77
2019-04-21T13:44:39.147Z,15.47
2019-04-21T13:47:52.822Z,14.82
2019-04-21T13:51:07.130Z,15.50
2019-04-21T13:54:21.927Z,15.09
2019-04-21T13:57:36.560Z,15.03
2019-04-21T14:00:51.075Z,15.55
2019-04-21T14:04:07.243Z,15.46
2019-04-21T14:07:20.958Z,13.97
2019-04-21T14:10:35.586Z,16.48
2019-04-21T14:13:50.397Z,15.61
2019-04-21T14:17:05.548Z,14.72
2019-04-21T14:20:21.483Z,14.49
2019-04-21T14:23:40.586Z,13.20
2019-04-21T14:26:52.211Z,14.49
2019-04-21T14:30:08.350Z,13.33
2019-04-21T14:33:23.519Z,13.32
2019-04-21T14:36:38.875Z,14.91
2019-04-21T14:39:59.900Z,16.04
2019-04-21T14:43:08.149Z,14.72
2019-04-21T14:46:35.733Z,12.54
2019-04-21T14:50:17.983Z,13.76
2019-04-21T14:53:45.594Z,13.21
2019-04-21T14:57:00.825Z,14.19
2019-04-21T15:00:15.534Z,12.96
2019-04-21T15:03:29.985Z,14.54
2019-04-21T15:06:45.299Z,14.45
2019-04-21T15:10:07.907Z,14.56
2019-04-21T15:13:14.776Z,14.80
2019-04-21T15:16:29.074Z,14.28
2019-04-21T15:19:49.610Z,14.63
2019-04-21T15:22:59.987Z,15.74
2019-04-21T15:26:14.352Z,15.11
2019-04-21T15:29:28.939Z,15.67
2019-04-21T15:32:42.747Z,14.72
2019-04-21T15:35:57.470Z,16.53
2019-04-21T15:39:11.902Z,17.01
2019-04-21T15:42:26.354Z,16.95
2019-04-21T15:45:39.911Z,17.46
2019-04-21T15:48:55.041Z,17.25
2019-04-21T15:52:09.767Z,16.99
2019-04-21T15:55:55.102Z,17.19
2019-04-21T15:59:34.547Z,16.57
2019-04-21T16:02:48.631Z,16.60
2019-04-21T16:06:03.329Z,16.25
2019-04-21T16:09:21.423Z,17.48
2019-04-21T16:12:33.909Z,17.53
2019-04-21T16:15:48.459Z,17.85
2019-04-21T16:19:02.258Z,17.34
2019-04-21T16:22:16.769Z,17.64
2019-04-21T16:25:30.646Z,17.42
2019-04-21T16:28:44.941Z,17.41
2019-04-21T16:31:59.676Z,18.72
2019-04-21T16:35:14.977Z,18.74
2019-04-21T16:38:29.520Z,18.74
2019-04-21T16:41:44.538Z,17.80
2019-04-21T16:44:58.896Z,17.80
2019-04-21T16:48:12.969Z,17.40
2019-04-21T16:51:28.373Z,17.87
2019-04-21T16:54:44.116Z,18.55
2019-04-21T16:58:23.115Z,18.55
2019-04-21T17:01:34.199Z,18.44
2019-04-21T17:04:48.583Z,18.44
2019-04-21T17:08:02.277Z,18.80
2019-04-21T17:11:21.611Z,18.87
2019-04-21T17:14:51.272Z,19.01
2019-04-21T17:18:06.163Z,20.56
2019-04-21T17:21:03.737Z,19.25
2019-04-21T17:24:18.211Z,21.04
2019-04-21T17:27:33.377Z,20.36
2019-04-21T17:30:48.459Z,20.64
2019-04-21T17:34:10.270Z,22.07
2019-04-21T17:37:21.163Z,22.28
2019-04-21T17:40:33.921Z,22.15
2019-04-21T17:43:47.873Z,23.55
2019-04-21T17:47:05.674Z,25.86
2019-04-21T17:50:29.371Z,27.37
2019-04-21T17:53:53.784Z,29.02
2019-04-21T17:57:26.645Z,28.99
2019-04-21T18:01:05.537Z,31.13
2019-04-21T18:04:03.625Z,32.08
2019-04-21T18:07:17.247Z,32.57
2019-04-21T18:10:37.489Z,34.20
2019-04-21T18:13:34.653Z,34.90
2019-04-21T18:16:50.248Z,35.18
2019-04-21T18:20:06.014Z,36.86
2019-04-21T18:23:52.071Z,37.18
2019-04-21T18:27:03.569Z,39.75
2019-04-21T18:30:58.374Z,40.86
2019-04-21T18:34:33.878Z,40.71
2019-04-21T18:38:04.467Z,42.52
2019-04-21T18:41:09.960Z,42.97
2019-04-21T18:45:22.671Z,43.17
2019-04-21T18:48:27.378Z,43.35
2019-04-21T18:51:59.658Z,44.37
2019-04-21T18:55:18.011Z,45.23
2019-04-21T18:58:24.179Z,45.74
2019-04-21T19:01:39.990Z,46.62
2019-04-21T19:04:59.937Z,48.14
2019-04-21T19:08:25.458Z,48.03
2019-04-21T19:11:43.344Z,49.78
2019-04-21T19:14:56.276Z,50.77
2019-04-21T19:18:34.024Z,51.54
2019-04-21T19:21:24.501Z,51.83
2019-04-21T19:24:48.567Z,52.51
2019-04-21T19:27:59.020Z,53.02
2019-04-21T19:31:28.287Z,54.39
2019-04-21T19:34:22.485Z,54.97
2019-04-21T19:37:38.956Z,55.79
2019-04-21T19:40:56.530Z,55.88
2019-04-21T19:44:20.537Z,56.20
2019-04-21T19:47:43.325Z,57.04
2019-04-21T19:50:50.259Z,57.26
2019-04-21T19:53:56.124Z,57.92
2019-04-21T19:57:04.809Z,58.49
2019-04-21T20:00:19.284Z,59.12
2019-04-21T20:03:34.639Z,59.39
2019-04-21T20:07:01.046Z,58.98
2019-04-21T20:10:26.952Z,58.68
2019-04-21T20:13:59.790Z,60.00
2019-04-21T20:16:50.334Z,59.96
2019-04-21T20:19:52.052Z,60.89
2019-04-21T20:23:13.136Z,61.12
2019-04-21T20:26:33.122Z,60.46
2019-04-21T20:29:57.896Z,61.91
2019-04-21T20:33:38.205Z,62.35
2019-04-21T20:36:26.187Z,63.13
2019-04-21T20:39:29.408Z,63.06
2019-04-21T20:42:52.412Z,63.76
2019-04-21T20:46:12.358Z,63.57
2019-04-21T20:49:23.085Z,64.52
2019-04-21T20:52:47.673Z,65.09
2019-04-21T20:55:52.796Z,65.29
2019-04-21T20:59:12.161Z,65.16
2019-04-21T21:02:26.535Z,66.04
2019-04-21T21:05:42.581Z,66.27
2019-04-21T21:09:01.445Z,66.07
2019-04-21T21:12:33.760Z,65.58
2019-04-21T21:16:53.388Z,66.85
2019-04-21T21:20:08.922Z,66.72
2019-04-21T21:23:12.834Z,66.93
2019-04-21T21:26:38.139Z,66.95
2019-04-21T21:29:50.218Z,66.70
2019-04-21T21:33:11.429Z,67.01
2019-04-21T21:36:19.239Z,67.22
2019-04-21T21:39:48.786Z,68.50
2019-04-21T21:42:40.046Z,68.18
2019-04-21T21:45:55.623Z,68.37
2019-04-21T21:49:23.711Z,67.82
2019-04-21T21:52:36.678Z,68.57
2019-04-21T21:55:38.581Z,68.62
2019-04-21T21:58:53.878Z,69.10
2019-04-21T22:02:09.467Z,69.02
2019-04-21T22:05:27.299Z,69.40
2019-04-21T22:08:40.564Z,70.04
2019-04-21T22:11:57.848Z,69.32
2019-04-21T22:15:17.345Z,69.59
2019-04-21T22:18:39.525Z,70.30
2019-04-21T22:21:59.519Z,70.09
2019-04-21T22:25:09.082Z,69.95
2019-04-21T22:28:13.473Z,70.73
2019-04-21T22:31:31.874Z,71.24
2019-04-21T22:34:50.244Z,70.36
2019-04-21T22:38:15.213Z,70.28
2019-04-21T22:41:24.222Z,71.18
2019-04-21T22:44:30.202Z,71.78
2019-04-21T22:47:45.147Z,72.03
2019-04-21T22:51:00.581Z,70.98
2019-04-21T22:54:20.810Z,71.98
2019-04-21T22:57:37.824Z,70.77
2019-04-21T23:00:53.040Z,71.19
2019-04-21T23:04:02.931Z,71.56
2019-04-21T23:07:19.384Z,72.05
2019-04-21T23:10:32.295Z,72.37
2019-04-21T23:13:55.324Z,72.78
2019-04-21T23:17:24.099Z,73.76
2019-04-21T23:20:39.391Z,74.38
2019-04-21T23:23:51.658Z,72.91
2019-04-21T23:27:02.654Z,72.32
2019-04-21T23:30:34.193Z,72.85
2019-04-21T23:33:22.025Z,73.17
2019-04-21T23:36:43.503Z,73.63
2019-04-21T23:39:59.727Z,73.66
2019-04-21T23:43:13.410Z,73.27
2019-04-21T23:46:28.228Z,74.30
2019-04-21T23:49:47.117Z,73.02
2019-04-21T23:52:55.424Z,73.85
2019-04-21T23:56:14.723Z,75.16
2019-04-21T23:59:26.705Z,74.91
